KPHD

Harry Clever Field Airport

New Philadelphia, Ohio, USA
METAR KPHD 231453Z AUTO 32007KT 10SM BKN020 BKN026 17/13 A3017 RMK AO2 SLP214 T01720128 51015
Observed Flight Rules
May-23 @ 14:53 UTC (18 minutes ago) Marginal Visual Flight Rules
Wind Visibility Clouds
320° at 7 knots 10 miles
  • Broken at 2,000' AGL
  • Broken at 2,600' AGL
Temperatures Readings
Current 17°C / 63°F
Dewpoint 13°C / 55°F
Humidity 77%
Altimeter 30.17" Hg
Pressure 1021.4 hPa
Elevation 272
METAR KPHD 231453Z AUTO 32007KT 10SM BKN020 BKN026 17/13 A3017 RMK AO2 SLP214 T01720128 51015
Observed Flight Rules
May-23 @ 14:53 UTC
(18 minutes ago)
MVFR
Wind Visibility
320° at 7 knots 10 miles
Clouds
  • Broken at 2,000' AGL
  • Broken at 2,600' AGL
Temperature Dewpoint
17°C / 63°F 13°C / 55°F
Humidity Altimeter Pressure
77% 30.17" Hg 1021.4 hPa